WGN991 KJFK-EKVG
Flight info
| Callsign | WGN991 |
|---|---|
| Flight time | N/A |
| Altitude | 33000 |
| Route | CRI DCT LLUND Q22 FOXWD Q439 BEEKN Q480 ENE Q822 ALLEX N707B MELDI/M082F330 DCT 55N048W 58N040W 60N029W 61N018W |
| Aircraft | MD11/H-SDE1E2E3FGHIJ2J3J4J5M1RWXY/LB1D1 |
Departure
| Time | 2026-04-30 21:38 |
|---|---|
| Airport | John F. Kennedy International Airport (KJFK) |
Arrival
| Time | N/A |
|---|---|
| Airport | Vágar Airport (EKVG) |
| Time | Latitude | Longitude | Altitude | Speed | Heading |
|---|---|---|---|---|---|
| 2026-04-30 21:01 | 40.65475 | -73.77460 | 12 ft | 0 kts | 204° |
| 2026-04-30 21:27 | 40.65506 | -73.77441 | 24 ft | 3 kts | 206° |
| 2026-04-30 21:27 | 40.65524 | -73.77429 | 26 ft | 3 kts | 211° |
| 2026-04-30 21:27 | 40.65541 | -73.77415 | 24 ft | 3 kts | 217° |
| 2026-04-30 21:28 | 40.65572 | -73.77382 | 26 ft | 2 kts | 219° |
| 2026-04-30 21:28 | 40.65576 | -73.77378 | 28 ft | 0 kts | 219° |
| 2026-04-30 21:33 | 40.65567 | -73.77461 | 27 ft | 14 kts | 280° |
| 2026-04-30 21:33 | 40.65576 | -73.77592 | 26 ft | 13 kts | 273° |
| 2026-04-30 21:34 | 40.65537 | -73.77669 | 26 ft | 12 kts | 214° |
| 2026-04-30 21:34 | 40.65375 | -73.77789 | 26 ft | 13 kts | 187° |
| 2026-04-30 21:34 | 40.65319 | -73.77728 | 28 ft | 14 kts | 121° |
| 2026-04-30 21:35 | 40.65252 | -73.77585 | 25 ft | 19 kts | 121° |
| 2026-04-30 21:35 | 40.65159 | -73.77380 | 27 ft | 28 kts | 121° |
| 2026-04-30 21:35 | 40.65063 | -73.77169 | 28 ft | 25 kts | 121° |
| 2026-04-30 21:35 | 40.64979 | -73.76982 | 26 ft | 22 kts | 121° |
| 2026-04-30 21:36 | 40.64896 | -73.76802 | 28 ft | 23 kts | 121° |
| 2026-04-30 21:36 | 40.64905 | -73.76681 | 25 ft | 13 kts | 38° |
| 2026-04-30 21:37 | 40.65092 | -73.76471 | 27 ft | 6 kts | 102° |
| 2026-04-30 21:37 | 40.65036 | -73.76369 | 26 ft | 16 kts | 159° |
| 2026-04-30 21:37 | 40.64960 | -73.76403 | 24 ft | 10 kts | 212° |
| 2026-04-30 21:37 | 40.64872 | -73.76475 | 27 ft | 37 kts | 211° |
| 2026-04-30 21:38 | 40.64407 | -73.76836 | 25 ft | 118 kts | 211° |
| 2026-04-30 21:38 | 40.63498 | -73.77546 | 36 ft | 181 kts | 211° |
| 2026-04-30 21:38 | 40.62373 | -73.78402 | 632 ft | 189 kts | 209° |
| 2026-04-30 21:38 | 40.61228 | -73.79270 | 1570 ft | 189 kts | 212° |
| 2026-04-30 21:39 | 40.60097 | -73.80181 | 2257 ft | 195 kts | 214° |
| 2026-04-30 21:39 | 40.58920 | -73.81140 | 2955 ft | 199 kts | 214° |
| 2026-04-30 21:39 | 40.57685 | -73.82144 | 3348 ft | 223 kts | 214° |
| 2026-04-30 21:39 | 40.56333 | -73.83310 | 3503 ft | 246 kts | 223° |
| 2026-04-30 21:40 | 40.55188 | -73.85112 | 3657 ft | 271 kts | 238° |
| 2026-04-30 21:40 | 40.54167 | -73.87222 | 4556 ft | 267 kts | 239° |
| 2026-04-30 21:40 | 40.53178 | -73.89262 | 5487 ft | 274 kts | 239° |
| 2026-04-30 21:40 | 40.52289 | -73.91047 | 6081 ft | 277 kts | 238° |
| 2026-04-30 21:41 | 40.51264 | -73.93222 | 6827 ft | 280 kts | 248° |
| 2026-04-30 21:41 | 40.50888 | -73.95700 | 7630 ft | 280 kts | 272° |
| 2026-04-30 21:41 | 40.51382 | -73.98169 | 8392 ft | 285 kts | 297° |
| 2026-04-30 21:41 | 40.52659 | -74.00183 | 9070 ft | 293 kts | 319° |
| 2026-04-30 21:42 | 40.54501 | -74.01389 | 9784 ft | 303 kts | 343° |
| 2026-04-30 21:42 | 40.56649 | -74.01537 | 10206 ft | 323 kts | 5° |
| 2026-04-30 21:42 | 40.58831 | -74.00534 | 10649 ft | 338 kts | 27° |
| 2026-04-30 21:42 | 40.60891 | -73.98865 | 10910 ft | 359 kts | 29° |
| 2026-04-30 21:43 | 40.63068 | -73.97088 | 11172 ft | 374 kts | 29° |
| 2026-04-30 21:43 | 40.64537 | -73.95897 | 11612 ft | 377 kts | 29° |
| 2026-04-30 21:43 | 40.67558 | -73.93447 | 12461 ft | 384 kts | 28° |
| 2026-04-30 21:43 | 40.69842 | -73.91593 | 13087 ft | 388 kts | 28° |
| 2026-04-30 21:44 | 40.72149 | -73.89716 | 13672 ft | 393 kts | 28° |
| 2026-04-30 21:44 | 40.73699 | -73.88453 | 14019 ft | 396 kts | 28° |
| 2026-04-30 21:44 | 40.76067 | -73.86523 | 14506 ft | 402 kts | 28° |
| 2026-04-30 21:44 | 40.78461 | -73.84568 | 14992 ft | 407 kts | 28° |
| 2026-04-30 21:45 | 40.81674 | -73.81940 | 15619 ft | 413 kts | 28° |
| 2026-04-30 21:45 | 40.84129 | -73.79931 | 16093 ft | 418 kts | 28° |
| 2026-04-30 21:45 | 40.85775 | -73.78484 | 16347 ft | 424 kts | 35° |
| 2026-04-30 21:45 | 40.87910 | -73.75755 | 16817 ft | 432 kts | 48° |
| 2026-04-30 21:46 | 40.89751 | -73.72587 | 17253 ft | 437 kts | 53° |
| 2026-04-30 21:46 | 40.91462 | -73.69257 | 17692 ft | 443 kts | 56° |
| 2026-04-30 21:46 | 40.93170 | -73.65822 | 18139 ft | 447 kts | 56° |
| 2026-04-30 21:46 | 40.94897 | -73.62375 | 18542 ft | 450 kts | 55° |
| 2026-04-30 21:47 | 40.96653 | -73.58929 | 18943 ft | 453 kts | 55° |
| 2026-04-30 21:47 | 40.98417 | -73.55518 | 19328 ft | 456 kts | 54° |
| 2026-04-30 21:47 | 41.00224 | -73.52054 | 19727 ft | 459 kts | 54° |
| 2026-04-30 21:47 | 41.02051 | -73.48567 | 20113 ft | 462 kts | 54° |
| 2026-04-30 21:48 | 41.03892 | -73.45059 | 20513 ft | 465 kts | 54° |
| 2026-04-30 21:48 | 41.05742 | -73.41531 | 20904 ft | 468 kts | 54° |
| 2026-04-30 21:48 | 41.07600 | -73.37982 | 21314 ft | 470 kts | 54° |
| 2026-04-30 21:48 | 41.09469 | -73.34407 | 21707 ft | 473 kts | 55° |
| 2026-04-30 21:49 | 41.11353 | -73.30797 | 22113 ft | 476 kts | 55° |
| 2026-04-30 21:49 | 41.13241 | -73.27174 | 22524 ft | 479 kts | 55° |
| 2026-04-30 21:49 | 41.15145 | -73.23518 | 22930 ft | 483 kts | 55° |
| 2026-04-30 21:49 | 41.17055 | -73.19844 | 23355 ft | 485 kts | 55° |
| 2026-04-30 21:50 | 41.18977 | -73.16143 | 23720 ft | 488 kts | 55° |
| 2026-04-30 21:50 | 41.20910 | -73.12415 | 24096 ft | 491 kts | 55° |
| 2026-04-30 21:50 | 41.22850 | -73.08671 | 24468 ft | 493 kts | 55° |
| 2026-04-30 21:50 | 41.24798 | -73.04907 | 24860 ft | 496 kts | 55° |
| 2026-04-30 21:51 | 41.26757 | -73.01116 | 25249 ft | 499 kts | 55° |
| 2026-04-30 21:51 | 41.28723 | -72.97307 | 25625 ft | 502 kts | 55° |
| 2026-04-30 21:51 | 41.30704 | -72.93450 | 25985 ft | 505 kts | 56° |
| 2026-04-30 21:51 | 41.32604 | -72.89512 | 26345 ft | 508 kts | 58° |
| 2026-04-30 21:52 | 41.34411 | -72.85525 | 26704 ft | 510 kts | 59° |
| 2026-04-30 21:52 | 41.36211 | -72.81439 | 27053 ft | 513 kts | 60° |
| 2026-04-30 21:52 | 41.38014 | -72.77317 | 27416 ft | 516 kts | 60° |
| 2026-04-30 21:52 | 41.39826 | -72.73179 | 27770 ft | 519 kts | 59° |
| 2026-04-30 21:53 | 41.41658 | -72.69016 | 28102 ft | 522 kts | 59° |
| 2026-04-30 21:53 | 41.43505 | -72.64834 | 28452 ft | 524 kts | 59° |
| 2026-04-30 21:53 | 41.45364 | -72.60633 | 28792 ft | 527 kts | 59° |
| 2026-04-30 21:53 | 41.47230 | -72.56414 | 29122 ft | 530 kts | 59° |
| 2026-04-30 21:54 | 41.49110 | -72.52161 | 29443 ft | 533 kts | 59° |
| 2026-04-30 21:54 | 41.50992 | -72.47896 | 29792 ft | 534 kts | 59° |
| 2026-04-30 21:54 | 41.52872 | -72.43628 | 30166 ft | 534 kts | 59° |
| 2026-04-30 21:54 | 41.54754 | -72.39348 | 30525 ft | 533 kts | 59° |
| 2026-04-30 21:55 | 41.56628 | -72.35080 | 30877 ft | 532 kts | 59° |
| 2026-04-30 21:55 | 41.58499 | -72.30811 | 31226 ft | 532 kts | 59° |
| 2026-04-30 21:55 | 41.60363 | -72.26554 | 31589 ft | 531 kts | 59° |
| 2026-04-30 21:55 | 41.62223 | -72.22299 | 31907 ft | 530 kts | 60° |
| 2026-04-30 21:56 | 41.64055 | -72.18101 | 32227 ft | 529 kts | 60° |
| 2026-04-30 21:56 | 41.65933 | -72.13794 | 32556 ft | 529 kts | 60° |
| 2026-04-30 21:56 | 41.67760 | -72.09597 | 32740 ft | 530 kts | 60° |
| 2026-04-30 21:56 | 41.69615 | -72.05330 | 32785 ft | 531 kts | 60° |
| 2026-04-30 21:57 | 41.73323 | -71.96773 | 32793 ft | 531 kts | 60° |
| 2026-04-30 21:57 | 41.76997 | -71.88194 | 32786 ft | 531 kts | 60° |
| 2026-04-30 21:58 | 41.81234 | -71.80139 | 32785 ft | 529 kts | 44° |
| 2026-04-30 21:58 | 41.83992 | -71.76906 | 32791 ft | 525 kts | 33° |
| 2026-04-30 21:58 | 41.87103 | -71.74377 | 32789 ft | 520 kts | 22° |
| 2026-04-30 21:59 | 41.93781 | -71.70755 | 32799 ft | 518 kts | 17° |
| 2026-04-30 22:00 | 42.03730 | -71.64979 | 32789 ft | 520 kts | 22° |
| 2026-04-30 22:00 | 42.13459 | -71.58479 | 32787 ft | 520 kts | 23° |
| 2026-04-30 22:01 | 42.19931 | -71.54108 | 32780 ft | 520 kts | 23° |
| 2026-04-30 22:01 | 42.26424 | -71.49812 | 32784 ft | 519 kts | 22° |
| 2026-04-30 22:02 | 42.32909 | -71.45654 | 32782 ft | 519 kts | 22° |
| 2026-04-30 22:02 | 42.39436 | -71.41488 | 32778 ft | 519 kts | 22° |
| 2026-04-30 22:03 | 42.45959 | -71.37305 | 32779 ft | 518 kts | 22° |
| 2026-04-30 22:03 | 42.52474 | -71.33110 | 32783 ft | 518 kts | 22° |
| 2026-04-30 22:04 | 42.58987 | -71.28904 | 32787 ft | 518 kts | 22° |
| 2026-04-30 22:05 | 42.68740 | -71.22586 | 32803 ft | 518 kts | 23° |
| 2026-04-30 22:05 | 42.75244 | -71.18364 | 32802 ft | 518 kts | 23° |
| 2026-04-30 22:06 | 42.81741 | -71.14137 | 32804 ft | 517 kts | 23° |
| 2026-04-30 22:06 | 42.91463 | -71.07791 | 32797 ft | 516 kts | 23° |
| 2026-04-30 22:07 | 42.97798 | -71.03316 | 32774 ft | 516 kts | 27° |
| 2026-04-30 22:07 | 43.04048 | -70.98480 | 32766 ft | 516 kts | 28° |
| 2026-04-30 22:08 | 43.10079 | -70.93775 | 32765 ft | 515 kts | 28° |
| 2026-04-30 22:08 | 43.16315 | -70.88945 | 32763 ft | 514 kts | 28° |
| 2026-04-30 22:09 | 43.22545 | -70.84130 | 32785 ft | 513 kts | 28° |
| 2026-04-30 22:09 | 43.28766 | -70.79314 | 32781 ft | 513 kts | 28° |
| 2026-04-30 22:10 | 43.34863 | -70.74251 | 32794 ft | 513 kts | 37° |
| 2026-04-30 22:10 | 43.37502 | -70.70964 | 32806 ft | 512 kts | 48° |
| 2026-04-30 22:10 | 43.39712 | -70.67349 | 32795 ft | 511 kts | 53° |
| 2026-04-30 22:11 | 43.43593 | -70.59201 | 32794 ft | 508 kts | 65° |
| 2026-04-30 22:11 | 43.45032 | -70.54778 | 32797 ft | 506 kts | 70° |